Leeville, Mississippi
Current Conditions -  °F | °C
As of 5:53 PM on Wednesday 22 Oct 2014 (Local Time) from KHBG Reporting Station
Clear Clear  
Wind Chill: 73°   Ceiling: Unl
Heat Index: 73°   Visibility: 10mi
Dew Point: 49°   Wind: 5mph
Humidity: 42%   Direction: 10°N
Pressure: 30.07"   Gusts: NA
Location:  31.1996°N, 89.2694°W
Report Text: KHBG 222253Z AUTO 01004KT 10SM CLR 23/09 A3007 RMK AO2 SLP179 T02280094
Loading
Personal Weather Stations






























Interactive Weather Map
Tropical Storm Tracking
New forecast layout! Learn more

10-Day Weather Forecast

Advertisements
Track Severe Weather on mobile